Time;durP1;ratioP1;P1;durP2;ratioP2;P2;SDS_P1;SDS_P2;PMS_P1;PMS_P2;Temp;Humidity;BMP_temperature;BMP_pressure;BME280_temperature;BME280_humidity;BME280_pressure;Samples;Min_cycle;Max_cycle;Signal;HPM_P1;HPM_P2
2022/03/15 00:00:29;;;;;;;10.53;4.40;;;;;;;;;;6099855;23;20199;-82
2022/03/15 00:02:57;;;;;;;8.47;4.40;;;;;;;;;;6125740;23;20182;-82
2022/03/15 00:05:27;;;;;;;8.27;5.17;;;;;;;;;;6125609;23;20195;-82
2022/03/15 00:07:56;;;;;;;9.33;4.00;;;;;;;;;;6099893;23;20185;-81
2022/03/15 00:10:24;;;;;;;9.60;5.17;;;;;;;;;;6100166;23;20238;-82
2022/03/15 00:12:54;;;;;;;10.43;4.50;;;;;;;;;;6100172;23;20186;-82
2022/03/15 00:15:23;;;;;;;7.37;4.13;;;;;;;;;;6100189;23;20175;-82
2022/03/15 00:17:51;;;;;;;8.23;4.00;;;;;;;;;;6099988;23;20182;-82
2022/03/15 00:20:22;;;;;;;13.13;4.73;;;;;;;;;;6099658;23;20242;-82
2022/03/15 00:22:55;;;;;;;10.57;5.27;;;;;;;;;;6100255;23;20261;-82
2022/03/15 00:25:23;;;;;;;8.33;5.30;;;;;;;;;;6100003;23;20198;-82
2022/03/15 00:27:52;;;;;;;13.73;5.83;;;;;;;;;;6099776;23;20234;-82
2022/03/15 00:30:22;;;;;;;10.13;5.67;;;;;;;;;;6099867;23;20187;-82
2022/03/15 00:32:51;;;;;;;13.03;5.43;;;;;;;;;;6099609;23;20187;-81
2022/03/15 00:35:21;;;;;;;10.53;4.60;;;;;;;;;;6100151;23;20199;-82
2022/03/15 00:37:51;;;;;;;11.90;6.63;;;;;;;;;;6126001;23;20174;-82
2022/03/15 00:40:21;;;;;;;7.80;5.83;;;;;;;;;;6100190;23;20181;-82
2022/03/15 00:42:51;;;;;;;7.57;5.40;;;;;;;;;;6099731;23;20205;-82
2022/03/15 00:45:22;;;;;;;20.43;6.27;;;;;;;;;;6099714;23;20248;-82
2022/03/15 00:47:53;;;;;;;15.27;6.20;;;;;;;;;;6099632;23;20202;-81
2022/03/15 00:50:22;;;;;;;10.37;5.50;;;;;;;;;;6100002;23;20438;-82
2022/03/15 00:52:51;;;;;;;11.30;6.43;;;;;;;;;;6100020;23;20212;-82
2022/03/15 00:55:21;;;;;;;14.33;7.17;;;;;;;;;;6099872;23;20186;-82
2022/03/15 00:57:49;;;;;;;10.10;6.60;;;;;;;;;;6099663;23;20189;-82
2022/03/15 01:00:19;;;;;;;26.40;5.63;;;;;;;;;;6099625;23;20189;-82
2022/03/15 01:02:48;;;;;;;12.67;6.50;;;;;;;;;;6099794;23;20229;-82
2022/03/15 01:05:16;;;;;;;5.73;4.77;;;;;;;;;;6099699;23;20183;-81
2022/03/15 01:07:45;;;;;;;11.57;6.63;;;;;;;;;;6100093;23;20182;-82
2022/03/15 01:10:13;;;;;;;11.03;5.43;;;;;;;;;;6099693;23;20174;-82
2022/03/15 01:12:43;;;;;;;13.37;6.00;;;;;;;;;;6125880;23;20182;-82
2022/03/15 01:15:12;;;;;;;12.47;6.23;;;;;;;;;;6099823;23;20179;-82
2022/03/15 01:17:40;;;;;;;11.67;6.77;;;;;;;;;;6125446;23;20184;-82
2022/03/15 01:20:09;;;;;;;12.03;6.80;;;;;;;;;;6125773;23;20180;-82
2022/03/15 01:22:38;;;;;;;3.23;2.53;;;;;;;;;;6101625;23;20249;-82
2022/03/15 01:25:06;;;;;;;7.77;4.07;;;;;;;;;;6126823;23;20179;-82
2022/03/15 01:27:35;;;;;;;8.80;5.97;;;;;;;;;;6101786;23;20202;-82
2022/03/15 01:30:07;;;;;;;7.43;5.17;;;;;;;;;;6101262;23;20195;-82
2022/03/15 01:32:36;;;;;;;6.13;4.97;;;;;;;;;;6127300;23;20183;-82
2022/03/15 01:35:04;;;;;;;6.17;5.57;;;;;;;;;;6126931;23;20633;-82
2022/03/15 01:37:33;;;;;;;12.60;6.43;;;;;;;;;;6101647;23;20209;-82
2022/03/15 01:40:01;;;;;;;10.20;6.60;;;;;;;;;;6101112;23;20238;-82
2022/03/15 01:42:30;;;;;;;9.53;6.33;;;;;;;;;;6101585;23;20182;-82
2022/03/15 01:44:58;;;;;;;13.70;9.50;;;;;;;;;;6101545;23;20178;-81
2022/03/15 01:47:28;;;;;;;9.07;5.77;;;;;;;;;;6101266;23;20199;-82
2022/03/15 01:49:56;;;;;;;13.17;6.90;;;;;;;;;;6101269;23;20207;-82
2022/03/15 01:52:25;;;;;;;10.60;6.13;;;;;;;;;;6101273;23;20220;-82
2022/03/15 01:54:54;;;;;;;18.97;6.80;;;;;;;;;;6101452;23;20180;-82
2022/03/15 01:57:23;;;;;;;11.23;6.20;;;;;;;;;;6101655;23;20174;-82
2022/03/15 01:59:52;;;;;;;11.43;6.07;;;;;;;;;;6101428;23;20178;-82
2022/03/15 02:02:20;;;;;;;8.63;5.70;;;;;;;;;;6101456;23;20179;-82
2022/03/15 02:04:51;;;;;;;7.60;6.17;;;;;;;;;;6101023;23;20286;-82
2022/03/15 02:07:19;;;;;;;8.67;5.53;;;;;;;;;;6100861;23;20194;-82
2022/03/15 02:09:49;;;;;;;10.87;6.80;;;;;;;;;;6101486;23;20175;-82
2022/03/15 02:12:17;;;;;;;10.20;6.43;;;;;;;;;;6127280;23;20411;-82
2022/03/15 02:14:46;;;;;;;8.80;7.70;;;;;;;;;;6101236;23;20193;-82
2022/03/15 02:17:14;;;;;;;6.57;5.60;;;;;;;;;;6101017;23;20179;-82
2022/03/15 02:19:45;;;;;;;10.50;7.43;;;;;;;;;;6101238;23;20189;-82
2022/03/15 02:22:14;;;;;;;9.43;6.73;;;;;;;;;;6101004;23;20226;-82
2022/03/15 02:24:43;;;;;;;12.20;6.03;;;;;;;;;;6101083;23;20185;-82
2022/03/15 02:27:11;;;;;;;16.60;7.80;;;;;;;;;;6101438;23;20198;-82
2022/03/15 02:29:40;;;;;;;7.87;6.13;;;;;;;;;;6100830;23;20178;-81
2022/03/15 02:32:09;;;;;;;9.03;5.43;;;;;;;;;;6101230;23;20186;-82
2022/03/15 02:34:38;;;;;;;11.70;6.43;;;;;;;;;;6101263;23;20186;-82
2022/03/15 02:37:06;;;;;;;5.50;2.27;;;;;;;;;;6101362;23;20186;-82
2022/03/15 02:39:36;;;;;;;7.10;4.50;;;;;;;;;;6100830;23;20207;-81
2022/03/15 02:42:05;;;;;;;12.80;7.27;;;;;;;;;;6100793;23;20206;-81
2022/03/15 02:44:33;;;;;;;11.93;6.73;;;;;;;;;;6100779;23;20262;-82
2022/03/15 02:47:02;;;;;;;15.37;5.10;;;;;;;;;;6126734;23;20199;-82
2022/03/15 02:49:30;;;;;;;9.10;4.87;;;;;;;;;;6100517;23;20179;-82
2022/03/15 02:51:59;;;;;;;8.33;4.13;;;;;;;;;;6100824;23;20241;-82
2022/03/15 02:54:27;;;;;;;8.03;5.60;;;;;;;;;;6100904;23;20194;-82
2022/03/15 02:56:57;;;;;;;11.17;5.30;;;;;;;;;;6100639;23;20182;-82
2022/03/15 02:59:28;;;;;;;9.57;5.80;;;;;;;;;;6100819;23;20170;-82
2022/03/15 03:01:57;;;;;;;8.67;5.87;;;;;;;;;;6100796;23;20186;-82
2022/03/15 03:04:26;;;;;;;12.03;5.40;;;;;;;;;;6100745;23;20206;-82
2022/03/15 03:06:54;;;;;;;9.80;6.53;;;;;;;;;;6126327;23;20194;-82
2022/03/15 03:09:23;;;;;;;11.67;6.13;;;;;;;;;;6126384;23;20173;-82
2022/03/15 03:11:51;;;;;;;12.20;7.37;;;;;;;;;;6100093;23;20249;-82
2022/03/15 03:14:22;;;;;;;10.80;6.33;;;;;;;;;;6100770;23;20183;-82
2022/03/15 03:16:51;;;;;;;8.57;5.83;;;;;;;;;;6100810;23;20172;-82
2022/03/15 03:19:19;;;;;;;8.43;6.40;;;;;;;;;;6125327;23;20189;-82
2022/03/15 03:21:49;;;;;;;7.07;6.37;;;;;;;;;;6100446;23;20178;-81
2022/03/15 03:24:24;;;;;;;7.97;6.40;;;;;;;;;;6100699;23;20224;-81
2022/03/15 03:26:52;;;;;;;9.37;6.63;;;;;;;;;;6076495;23;20204;-82
2022/03/15 03:29:22;;;;;;;10.60;6.63;;;;;;;;;;6100653;23;20175;-81
2022/03/15 03:31:51;;;;;;;8.07;4.67;;;;;;;;;;6100129;23;20183;-82
2022/03/15 03:34:20;;;;;;;7.97;5.50;;;;;;;;;;6100765;23;20260;-82
2022/03/15 03:36:48;;;;;;;6.97;5.13;;;;;;;;;;6100416;23;20179;-81
2022/03/15 03:39:25;;;;;;;9.10;4.83;;;;;;;;;;6126540;23;20181;-81
2022/03/15 03:41:54;;;;;;;10.17;5.70;;;;;;;;;;6100555;23;20178;-82
2022/03/15 03:44:24;;;;;;;7.63;3.70;;;;;;;;;;6125364;23;20179;-80
2022/03/15 03:46:52;;;;;;;3.43;3.13;;;;;;;;;;6125949;23;20172;-82
2022/03/15 03:49:21;;;;;;;1.67;1.57;;;;;;;;;;6125829;23;20194;-82
2022/03/15 03:51:50;;;;;;;0.70;0.70;;;;;;;;;;6125673;23;20210;-82
2022/03/15 03:54:18;;;;;;;4.53;2.60;;;;;;;;;;6100390;23;20233;-82
2022/03/15 03:56:46;;;;;;;7.77;5.83;;;;;;;;;;6100445;23;20200;-81
2022/03/15 03:59:15;;;;;;;10.13;6.17;;;;;;;;;;6126172;23;20178;-82
2022/03/15 04:01:45;;;;;;;8.57;6.30;;;;;;;;;;6126100;23;20174;-82
2022/03/15 04:04:14;;;;;;;6.53;4.53;;;;;;;;;;6125870;23;20202;-82
2022/03/15 04:06:42;;;;;;;10.40;7.33;;;;;;;;;;6100828;23;20179;-82
2022/03/15 04:09:11;;;;;;;8.20;6.87;;;;;;;;;;6100184;23;20176;-82
2022/03/15 04:11:41;;;;;;;7.97;5.50;;;;;;;;;;6100089;23;20187;-82
2022/03/15 04:14:11;;;;;;;7.70;4.93;;;;;;;;;;6125503;23;20255;-82
2022/03/15 04:16:40;;;;;;;9.03;5.73;;;;;;;;;;6125896;23;20186;-82
2022/03/15 04:19:10;;;;;;;7.07;5.43;;;;;;;;;;6126019;23;20180;-82
2022/03/15 04:21:39;;;;;;;16.77;4.40;;;;;;;;;;6124658;23;20179;-82
2022/03/15 04:24:07;;;;;;;9.23;6.30;;;;;;;;;;6100352;23;20186;-82
2022/03/15 04:26:36;;;;;;;8.67;5.80;;;;;;;;;;6100027;23;20192;-82
2022/03/15 04:29:04;;;;;;;8.57;6.90;;;;;;;;;;6100167;23;20218;-82
2022/03/15 04:31:32;;;;;;;8.33;6.37;;;;;;;;;;6100586;23;20181;-82
2022/03/15 04:34:01;;;;;;;11.97;7.43;;;;;;;;;;6100290;23;20229;-82
2022/03/15 04:36:31;;;;;;;12.73;8.07;;;;;;;;;;6100374;23;20189;-82
2022/03/15 04:38:59;;;;;;;7.57;4.60;;;;;;;;;;6100201;23;20182;-82
2022/03/15 04:41:28;;;;;;;18.50;9.73;;;;;;;;;;6125751;23;20179;-82
2022/03/15 04:43:56;;;;;;;18.37;10.80;;;;;;;;;;6100126;23;20178;-82
2022/03/15 04:46:25;;;;;;;14.33;8.60;;;;;;;;;;6100806;23;20188;-82
2022/03/15 04:48:54;;;;;;;18.00;11.43;;;;;;;;;;6100115;23;20201;-81
2022/03/15 04:51:22;;;;;;;18.77;11.03;;;;;;;;;;6126050;23;20170;-81
2022/03/15 04:53:52;;;;;;;17.77;11.13;;;;;;;;;;6125697;23;20233;-82
2022/03/15 04:56:21;;;;;;;18.10;12.17;;;;;;;;;;6127899;23;20178;-81
2022/03/15 04:58:49;;;;;;;22.50;11.73;;;;;;;;;;6128126;23;20177;-81
2022/03/15 05:01:18;;;;;;;14.17;7.73;;;;;;;;;;6102028;23;20191;-81
2022/03/15 05:03:47;;;;;;;20.20;12.37;;;;;;;;;;6101635;23;20197;-82
2022/03/15 05:06:15;;;;;;;12.33;6.93;;;;;;;;;;6101906;23;20213;-82
2022/03/15 05:08:43;;;;;;;18.67;10.40;;;;;;;;;;6102288;23;20194;-82
2022/03/15 05:11:14;;;;;;;21.00;13.20;;;;;;;;;;6127607;23;20174;-82
2022/03/15 05:13:43;;;;;;;11.90;8.00;;;;;;;;;;6127984;23;20227;-82
2022/03/15 05:16:14;;;;;;;20.40;14.50;;;;;;;;;;6102270;23;20179;-82
2022/03/15 05:18:45;;;;;;;23.73;13.60;;;;;;;;;;6102293;23;20237;-81
2022/03/15 05:21:14;;;;;;;16.80;13.37;;;;;;;;;;6127459;23;20195;-82
2022/03/15 05:23:43;;;;;;;25.23;15.53;;;;;;;;;;6102073;23;20182;-82
2022/03/15 05:26:11;;;;;;;23.30;13.47;;;;;;;;;;6127442;23;20174;-82
2022/03/15 05:28:41;;;;;;;22.40;15.30;;;;;;;;;;6101472;23;20202;-82
2022/03/15 05:31:09;;;;;;;14.77;10.60;;;;;;;;;;6102008;23;20185;-82
2022/03/15 05:33:38;;;;;;;8.37;6.77;;;;;;;;;;6101709;23;20178;-82
2022/03/15 05:36:07;;;;;;;24.20;12.73;;;;;;;;;;6101919;23;20177;-82
2022/03/15 05:38:35;;;;;;;8.57;6.40;;;;;;;;;;6101423;23;20175;-81
2022/03/15 05:41:04;;;;;;;10.83;7.07;;;;;;;;;;6102001;23;20177;-82
2022/03/15 05:43:54;;;;;;;8.27;4.80;;;;;;;;;;6127449;23;20175;-81
2022/03/15 05:46:23;;;;;;;6.37;3.23;;;;;;;;;;6101437;23;20177;-82
2022/03/15 05:48:52;;;;;;;2.33;1.83;;;;;;;;;;6102048;23;20195;-82
2022/03/15 05:51:21;;;;;;;2.00;1.97;;;;;;;;;;6101119;23;20181;-82
2022/03/15 05:53:49;;;;;;;0.80;0.80;;;;;;;;;;6101471;23;20226;-82
2022/03/15 05:56:18;;;;;;;7.93;5.63;;;;;;;;;;6101756;23;20183;-82
2022/03/15 05:58:46;;;;;;;3.40;2.20;;;;;;;;;;6127045;23;20184;-81
2022/03/15 06:01:17;;;;;;;15.93;10.70;;;;;;;;;;6101128;23;20178;-81
2022/03/15 06:03:46;;;;;;;20.00;10.97;;;;;;;;;;6101461;23;20198;-82
2022/03/15 06:06:16;;;;;;;16.60;13.00;;;;;;;;;;6126837;23;20173;-82
2022/03/15 06:08:45;;;;;;;27.27;16.53;;;;;;;;;;6101571;23;20198;-82
2022/03/15 06:11:13;;;;;;;21.07;14.30;;;;;;;;;;6101265;23;20179;-81
2022/03/15 06:13:41;;;;;;;14.37;8.97;;;;;;;;;;6101317;23;20241;-82
2022/03/15 06:16:10;;;;;;;8.23;7.40;;;;;;;;;;6126982;23;20177;-81
2022/03/15 06:18:40;;;;;;;20.13;13.00;;;;;;;;;;6101996;23;20182;-81
2022/03/15 06:21:09;;;;;;;23.73;15.40;;;;;;;;;;6101106;23;20183;-81
2022/03/15 06:23:38;;;;;;;6.03;4.40;;;;;;;;;;6101434;23;20175;-81
2022/03/15 06:26:26;;;;;;;7.03;4.03;;;;;;;;;;6100870;23;20178;-81
2022/03/15 06:28:54;;;;;;;1.57;1.53;;;;;;;;;;6100903;23;20221;-81
2022/03/15 06:31:23;;;;;;;4.60;4.20;;;;;;;;;;6100693;23;20194;-82
2022/03/15 06:33:53;;;;;;;12.20;4.70;;;;;;;;;;6101026;23;20181;-81
2022/03/15 06:36:21;;;;;;;4.70;3.10;;;;;;;;;;6100810;23;20182;-81
2022/03/15 06:38:50;;;;;;;0.70;0.70;;;;;;;;;;6100928;23;20180;-80
2022/03/15 06:41:18;;;;;;;5.50;4.77;;;;;;;;;;6100880;23;20183;-80
2022/03/15 06:43:47;;;;;;;5.87;4.10;;;;;;;;;;6100748;23;20218;-81
2022/03/15 06:46:15;;;;;;;10.63;6.77;;;;;;;;;;6101248;23;20194;-81
2022/03/15 06:48:44;;;;;;;3.37;3.10;;;;;;;;;;6100574;23;20286;-81
2022/03/15 06:51:14;;;;;;;1.43;1.43;;;;;;;;;;6126497;23;20226;-81
2022/03/15 06:53:42;;;;;;;3.50;3.30;;;;;;;;;;6126145;23;20225;-81
2022/03/15 06:56:11;;;;;;;3.30;3.10;;;;;;;;;;6100510;23;20189;-80
2022/03/15 06:58:39;;;;;;;14.97;8.87;;;;;;;;;;6100613;23;20187;-81
2022/03/15 07:01:08;;;;;;;1.20;1.20;;;;;;;;;;6100380;23;20184;-81
2022/03/15 07:03:37;;;;;;;0.77;0.77;;;;;;;;;;6100679;23;20195;-81
2022/03/15 07:06:05;;;;;;;1.30;1.30;;;;;;;;;;6100496;23;20186;-81
2022/03/15 07:08:35;;;;;;;0.87;0.87;;;;;;;;;;6100869;23;20481;-81
2022/03/15 07:11:03;;;;;;;3.87;3.53;;;;;;;;;;6100572;23;20176;-81
2022/03/15 07:13:32;;;;;;;12.73;5.10;;;;;;;;;;6126181;23;20235;-81
2022/03/15 07:16:00;;;;;;;5.13;4.13;;;;;;;;;;6100466;23;20181;-81
2022/03/15 07:18:29;;;;;;;5.20;3.43;;;;;;;;;;6100414;23;20189;-82
2022/03/15 07:20:57;;;;;;;1.60;1.60;;;;;;;;;;6126344;23;20206;-81
2022/03/15 07:23:26;;;;;;;1.00;1.00;;;;;;;;;;6100514;23;20215;-82
2022/03/15 07:25:55;;;;;;;1.67;1.57;;;;;;;;;;6100543;23;20179;-81
2022/03/15 07:28:24;;;;;;;0.70;0.70;;;;;;;;;;6126038;23;20176;-81
2022/03/15 07:30:52;;;;;;;1.77;1.77;;;;;;;;;;6100463;23;20203;-81
2022/03/15 07:33:21;;;;;;;1.00;1.00;;;;;;;;;;6100378;23;20189;-81
2022/03/15 07:35:49;;;;;;;0.80;0.80;;;;;;;;;;6100303;23;20200;-81
2022/03/15 07:38:19;;;;;;;0.70;0.70;;;;;;;;;;6100650;23;20176;-81
2022/03/15 07:40:49;;;;;;;2.50;2.30;;;;;;;;;;6124546;23;20199;-81
2022/03/15 07:43:19;;;;;;;4.33;2.50;;;;;;;;;;6100034;23;20181;-81
2022/03/15 07:45:48;;;;;;;3.60;3.27;;;;;;;;;;6100278;23;20180;-81
2022/03/15 07:48:17;;;;;;;12.93;5.37;;;;;;;;;;6125838;23;20208;-81
2022/03/15 07:50:52;;;;;;;12.20;6.30;;;;;;;;;;6100767;23;20296;-81
2022/03/15 07:53:21;;;;;;;1.43;1.43;;;;;;;;;;6100366;23;20207;-81
2022/03/15 07:55:49;;;;;;;1.83;1.73;;;;;;;;;;6100529;23;20244;-81
2022/03/15 07:58:20;;;;;;;4.50;3.10;;;;;;;;;;6100108;23;20172;-81
2022/03/15 08:00:53;;;;;;;4.13;3.57;;;;;;;;;;6100478;23;20172;-81
2022/03/15 08:03:22;;;;;;;4.17;3.87;;;;;;;;;;6100543;23;20291;-81
2022/03/15 08:05:54;;;;;;;4.93;3.90;;;;;;;;;;6100183;23;20186;-81
2022/03/15 08:08:23;;;;;;;3.53;3.33;;;;;;;;;;6100616;23;20186;-81
2022/03/15 08:10:52;;;;;;;7.27;4.60;;;;;;;;;;6099780;23;20242;-82
2022/03/15 08:13:22;;;;;;;2.33;2.00;;;;;;;;;;6100592;23;20180;-81
2022/03/15 08:15:53;;;;;;;3.43;3.13;;;;;;;;;;6100379;23;20172;-81
2022/03/15 08:18:21;;;;;;;5.23;4.80;;;;;;;;;;6126175;23;20168;-81
2022/03/15 08:20:50;;;;;;;16.10;3.20;;;;;;;;;;6100607;23;20201;-81
2022/03/15 08:23:21;;;;;;;2.00;1.90;;;;;;;;;;6100569;23;20180;-81
2022/03/15 08:25:50;;;;;;;5.30;2.47;;;;;;;;;;6100078;23;20180;-81
2022/03/15 08:28:19;;;;;;;2.70;2.13;;;;;;;;;;6100410;23;20183;-81
2022/03/15 08:30:49;;;;;;;0.93;0.93;;;;;;;;;;6100220;23;20200;-81
2022/03/15 08:33:21;;;;;;;8.83;5.80;;;;;;;;;;6100428;23;20177;-81
2022/03/15 08:35:50;;;;;;;2.50;2.40;;;;;;;;;;6100473;23;20184;-81
2022/03/15 08:38:19;;;;;;;5.20;4.30;;;;;;;;;;6100351;23;20187;-81
2022/03/15 08:40:49;;;;;;;3.03;2.83;;;;;;;;;;6100019;23;20204;-80
2022/03/15 08:43:17;;;;;;;1.97;1.73;;;;;;;;;;6100362;23;20204;-81
2022/03/15 08:45:46;;;;;;;1.60;1.60;;;;;;;;;;6100377;23;20215;-81
2022/03/15 08:48:17;;;;;;;3.00;2.40;;;;;;;;;;6100216;23;20180;-81
2022/03/15 08:50:46;;;;;;;3.70;3.40;;;;;;;;;;6100273;23;20197;-81
2022/03/15 08:53:14;;;;;;;8.67;3.83;;;;;;;;;;6099890;23;20209;-81
2022/03/15 08:55:43;;;;;;;1.37;1.37;;;;;;;;;;6099855;23;20180;-80
2022/03/15 08:58:12;;;;;;;3.60;2.43;;;;;;;;;;6100056;23;20176;-81
2022/03/15 09:00:41;;;;;;;5.73;4.63;;;;;;;;;;6124796;23;20173;-82
2022/03/15 09:03:10;;;;;;;1.63;1.53;;;;;;;;;;6099942;23;20188;-81
2022/03/15 09:05:41;;;;;;;2.80;2.60;;;;;;;;;;6100650;23;20228;-82
2022/03/15 09:08:14;;;;;;;9.33;6.30;;;;;;;;;;6100091;23;20175;-81
2022/03/15 09:10:44;;;;;;;1.13;1.13;;;;;;;;;;6099658;23;20193;-81
2022/03/15 09:13:13;;;;;;;2.97;2.87;;;;;;;;;;6100054;23;20260;-82
2022/03/15 09:15:42;;;;;;;1.33;1.33;;;;;;;;;;6100187;23;20236;-82
2022/03/15 09:18:11;;;;;;;5.30;3.60;;;;;;;;;;6099531;23;20188;-82
2022/03/15 09:20:42;;;;;;;5.23;4.73;;;;;;;;;;6100074;23;20233;-82
2022/03/15 09:23:11;;;;;;;10.00;5.50;;;;;;;;;;6099917;23;20228;-82
2022/03/15 09:25:40;;;;;;;5.30;4.07;;;;;;;;;;6100153;23;20180;-82
2022/03/15 09:28:12;;;;;;;0.90;0.90;;;;;;;;;;6100170;23;20191;-82
2022/03/15 09:30:41;;;;;;;5.47;3.67;;;;;;;;;;6100278;23;20217;-82
2022/03/15 09:33:13;;;;;;;5.27;4.40;;;;;;;;;;6100167;23;20236;-82
2022/03/15 09:35:49;;;;;;;2.30;2.20;;;;;;;;;;6099803;23;20177;-81
2022/03/15 09:38:19;;;;;;;8.50;5.30;;;;;;;;;;6097349;23;20201;-81
2022/03/15 09:40:51;;;;;;;9.37;6.23;;;;;;;;;;6096140;23;20185;-83
2022/03/15 09:43:22;;;;;;;2.33;2.13;;;;;;;;;;6101224;23;20208;-82
2022/03/15 09:45:54;;;;;;;5.93;3.60;;;;;;;;;;6100844;23;20216;-83
2022/03/15 09:48:52;;;;;;;7.70;5.37;;;;;;;;;;6100651;23;20255;-83
2022/03/15 09:51:23;;;;;;;5.70;5.13;;;;;;;;;;6101112;23;20201;-82
2022/03/15 09:53:55;;;;;;;3.37;3.07;;;;;;;;;;6100632;23;20216;-84
2022/03/15 09:56:29;;;;;;;5.50;4.23;;;;;;;;;;6098661;23;20198;-85
2022/03/15 09:58:58;;;;;;;6.53;5.77;;;;;;;;;;6100383;23;20177;-83
2022/03/15 10:01:27;;;;;;;3.90;3.43;;;;;;;;;;6100504;23;20206;-83
2022/03/15 10:03:59;;;;;;;14.63;4.67;;;;;;;;;;6100725;23;20200;-85
2022/03/15 10:06:38;;;;;;;6.03;5.40;;;;;;;;;;6100609;23;20183;-85
2022/03/15 10:09:08;;;;;;;5.93;5.37;;;;;;;;;;6100024;23;20206;-82
2022/03/15 10:11:37;;;;;;;6.37;4.97;;;;;;;;;;6100403;23;20210;-82
2022/03/15 10:14:06;;;;;;;16.57;7.73;;;;;;;;;;6101125;23;20188;-82
2022/03/15 10:16:35;;;;;;;8.03;5.33;;;;;;;;;;6100171;23;20179;-80
2022/03/15 10:19:06;;;;;;;3.30;2.77;;;;;;;;;;6123676;23;20328;-81
2022/03/15 10:21:40;;;;;;;11.13;8.77;;;;;;;;;;6098814;23;20182;-81
2022/03/15 10:24:12;;;;;;;5.37;2.63;;;;;;;;;;6098352;23;20176;-81
2022/03/15 10:26:44;;;;;;;10.87;8.47;;;;;;;;;;6098137;23;20187;-81
2022/03/15 10:29:15;;;;;;;10.77;5.77;;;;;;;;;;6099706;23;20266;-81
2022/03/15 10:31:45;;;;;;;13.10;4.07;;;;;;;;;;6096363;23;20222;-82
2022/03/15 10:34:15;;;;;;;7.83;3.23;;;;;;;;;;6097969;23;20271;-82
2022/03/15 10:36:46;;;;;;;4.13;2.37;;;;;;;;;;6097951;23;20179;-81
2022/03/15 10:39:16;;;;;;;8.10;4.37;;;;;;;;;;6098686;23;20213;-82
2022/03/15 10:41:46;;;;;;;1.70;1.60;;;;;;;;;;6096994;23;20183;-81
2022/03/15 10:44:22;;;;;;;6.17;3.63;;;;;;;;;;6122214;23;20234;-83
2022/03/15 10:47:05;;;;;;;5.50;3.40;;;;;;;;;;6098735;23;20175;-82
2022/03/15 10:49:35;;;;;;;2.03;1.80;;;;;;;;;;6099325;23;20183;-82
2022/03/15 10:52:07;;;;;;;4.67;2.53;;;;;;;;;;6098554;23;20211;-82
2022/03/15 10:54:37;;;;;;;5.17;2.93;;;;;;;;;;6099935;23;20187;-81
2022/03/15 10:57:06;;;;;;;12.40;5.20;;;;;;;;;;6098938;23;20184;-83
2022/03/15 10:59:35;;;;;;;10.43;5.80;;;;;;;;;;6099262;23;20264;-82
2022/03/15 11:02:04;;;;;;;2.23;2.13;;;;;;;;;;6098333;23;20179;-83
2022/03/15 11:04:36;;;;;;;6.70;4.00;;;;;;;;;;6098713;23;20207;-83
2022/03/15 11:07:16;;;;;;;6.07;3.93;;;;;;;;;;6098582;23;20207;-85
2022/03/15 11:10:18;;;;;;;3.70;3.33;;;;;;;;;;6094907;23;20187;-83
2022/03/15 11:12:58;;;;;;;4.03;3.03;;;;;;;;;;6098337;23;20498;-83
2022/03/15 11:15:30;;;;;;;3.97;3.60;;;;;;;;;;6098923;23;20258;-84
2022/03/15 11:18:02;;;;;;;2.17;1.97;;;;;;;;;;6099041;23;20180;-84
2022/03/15 11:20:36;;;;;;;1.33;1.13;;;;;;;;;;6098950;23;20184;-84
2022/03/15 11:23:09;;;;;;;1.90;1.10;;;;;;;;;;6097194;23;20453;-82
2022/03/15 11:25:40;;;;;;;5.63;2.37;;;;;;;;;;6099369;23;20255;-83
2022/03/15 11:28:11;;;;;;;2.23;1.97;;;;;;;;;;6099058;23;20176;-84
2022/03/15 11:30:40;;;;;;;8.37;3.50;;;;;;;;;;6097903;23;20199;-84
2022/03/15 11:33:14;;;;;;;3.37;2.97;;;;;;;;;;6098243;23;20207;-84
2022/03/15 11:35:44;;;;;;;5.83;4.83;;;;;;;;;;6098140;23;20233;-82
2022/03/15 11:38:18;;;;;;;8.07;3.93;;;;;;;;;;6097639;23;20180;-83
2022/03/15 11:40:54;;;;;;;5.63;3.73;;;;;;;;;;6097781;23;20181;-83
2022/03/15 11:43:32;;;;;;;4.73;2.93;;;;;;;;;;6098193;23;20179;-82
2022/03/15 11:46:03;;;;;;;2.00;1.80;;;;;;;;;;6099499;23;20187;-81
2022/03/15 11:48:48;;;;;;;0.93;0.93;;;;;;;;;;6098991;23;20190;-84
2022/03/15 11:51:28;;;;;;;7.23;3.77;;;;;;;;;;6098683;23;20241;-86
2022/03/15 11:54:24;;;;;;;2.40;2.20;;;;;;;;;;6097798;23;20262;-85
2022/03/15 11:56:57;;;;;;;3.90;0.80;;;;;;;;;;6099012;23;20187;-84
2022/03/15 11:59:52;;;;;;;0.90;0.90;;;;;;;;;;6098737;23;20214;-86
2022/03/15 12:02:59;;;;;;;9.97;4.97;;;;;;;;;;6099216;23;20176;-85
2022/03/15 12:06:03;;;;;;;1.30;1.30;;;;;;;;;;6093812;23;20187;-85
2022/03/15 12:08:37;;;;;;;5.73;4.10;;;;;;;;;;6098271;23;20176;-83
2022/03/15 12:11:07;;;;;;;6.23;3.07;;;;;;;;;;6098313;23;20266;-80
2022/03/15 12:13:39;;;;;;;0.80;0.80;;;;;;;;;;6095777;23;20222;-81
2022/03/15 12:16:23;;;;;;;2.00;1.77;;;;;;;;;;6098241;23;20201;-83
2022/03/15 12:19:02;;;;;;;3.00;1.67;;;;;;;;;;6098417;23;20197;-82
2022/03/15 12:21:30;;;;;;;6.50;1.93;;;;;;;;;;6122979;23;20172;-83
2022/03/15 12:24:01;;;;;;;1.23;1.13;;;;;;;;;;6098282;23;20215;-83
2022/03/15 12:26:38;;;;;;;3.63;2.13;;;;;;;;;;6099237;23;20176;-83
2022/03/15 12:29:12;;;;;;;4.57;2.30;;;;;;;;;;6098392;23;20200;-82
2022/03/15 12:31:42;;;;;;;0.43;0.43;;;;;;;;;;6098064;23;20251;-84
2022/03/15 12:34:13;;;;;;;0.60;0.60;;;;;;;;;;6098045;23;20180;-84
2022/03/15 12:36:49;;;;;;;1.33;1.33;;;;;;;;;;6098786;23;20180;-83
2022/03/15 12:39:30;;;;;;;5.10;3.20;;;;;;;;;;6099016;23;20191;-85
2022/03/15 12:42:12;;;;;;;9.07;3.27;;;;;;;;;;6098382;23;20173;-84
2022/03/15 12:44:42;;;;;;;3.67;2.13;;;;;;;;;;6098004;23;20270;-82
2022/03/15 12:47:19;;;;;;;2.37;1.80;;;;;;;;;;6098709;23;20179;-85
2022/03/15 12:50:07;;;;;;;1.63;1.53;;;;;;;;;;6097890;23;20187;-80
2022/03/15 12:52:42;;;;;;;2.27;1.10;;;;;;;;;;6097218;23;20294;-82
2022/03/15 12:55:19;;;;;;;0.50;0.50;;;;;;;;;;6097239;23;20179;-82
2022/03/15 12:57:55;;;;;;;5.47;2.10;;;;;;;;;;6097750;23;20184;-83
2022/03/15 13:00:30;;;;;;;1.80;1.70;;;;;;;;;;6097642;23;20187;-84
2022/03/15 13:03:01;;;;;;;6.37;2.57;;;;;;;;;;6097883;23;20185;-84
2022/03/15 13:05:33;;;;;;;4.90;2.87;;;;;;;;;;6097671;23;20178;-84
2022/03/15 13:08:06;;;;;;;2.37;1.23;;;;;;;;;;6096490;23;20185;-83
2022/03/15 13:10:38;;;;;;;3.43;1.30;;;;;;;;;;6096418;23;20176;-81
2022/03/15 13:13:10;;;;;;;6.40;2.77;;;;;;;;;;6096648;23;20200;-84
2022/03/15 13:15:40;;;;;;;2.83;1.20;;;;;;;;;;6096279;23;20181;-81
2022/03/15 13:18:09;;;;;;;3.27;1.70;;;;;;;;;;6099326;23;20206;-82
2022/03/15 13:20:38;;;;;;;2.23;1.20;;;;;;;;;;6099801;23;20206;-84
2022/03/15 13:23:10;;;;;;;2.87;2.57;;;;;;;;;;6100012;23;20231;-83
2022/03/15 13:25:42;;;;;;;0.97;0.97;;;;;;;;;;6099305;23;20177;-84
2022/03/15 13:28:19;;;;;;;2.70;1.90;;;;;;;;;;6099470;23;20263;-84
2022/03/15 13:30:50;;;;;;;0.57;0.57;;;;;;;;;;6098924;23;20186;-82
2022/03/15 13:33:30;;;;;;;1.53;1.43;;;;;;;;;;6098384;23;20201;-84
2022/03/15 13:36:00;;;;;;;1.27;1.10;;;;;;;;;;6099307;23;20180;-82
2022/03/15 13:38:29;;;;;;;14.00;1.97;;;;;;;;;;6099492;23;20184;-83
2022/03/15 13:41:00;;;;;;;6.37;1.77;;;;;;;;;;6125330;23;20169;-84
2022/03/15 13:43:33;;;;;;;8.70;1.90;;;;;;;;;;6098956;23;20224;-83
2022/03/15 13:46:04;;;;;;;1.30;1.10;;;;;;;;;;6099845;23;20208;-83
2022/03/15 13:48:37;;;;;;;2.07;1.53;;;;;;;;;;6123787;23;20173;-83
2022/03/15 13:51:07;;;;;;;2.60;1.57;;;;;;;;;;6099553;23;20180;-83
2022/03/15 13:53:37;;;;;;;0.90;0.90;;;;;;;;;;6125139;23;20218;-85
2022/03/15 13:56:14;;;;;;;2.70;1.90;;;;;;;;;;6098043;23;20181;-85
2022/03/15 13:58:45;;;;;;;7.73;1.33;;;;;;;;;;6124890;23;20176;-82
2022/03/15 14:01:17;;;;;;;11.87;3.40;;;;;;;;;;6125374;23;20201;-84
2022/03/15 14:03:46;;;;;;;3.47;2.70;;;;;;;;;;6098780;23;20193;-84
2022/03/15 14:06:19;;;;;;;1.37;1.27;;;;;;;;;;6098410;23;20220;-82
2022/03/15 14:08:49;;;;;;;2.30;2.10;;;;;;;;;;6097770;23;20184;-83
2022/03/15 14:11:32;;;;;;;6.40;4.47;;;;;;;;;;6099133;23;20183;-84
2022/03/15 14:14:05;;;;;;;3.77;3.17;;;;;;;;;;6098458;23;20192;-83
2022/03/15 14:16:36;;;;;;;4.40;4.00;;;;;;;;;;6123151;23;20211;-83
2022/03/15 14:19:08;;;;;;;4.97;3.00;;;;;;;;;;6099269;23;20204;-84
2022/03/15 14:21:40;;;;;;;5.20;3.17;;;;;;;;;;6098130;23;20180;-83
2022/03/15 14:24:10;;;;;;;10.80;7.53;;;;;;;;;;6097483;23;20266;-84
2022/03/15 14:26:39;;;;;;;11.83;8.03;;;;;;;;;;6098407;23;20247;-85
2022/03/15 14:29:19;;;;;;;12.13;5.70;;;;;;;;;;6097264;23;20190;-83
2022/03/15 14:31:59;;;;;;;5.83;4.00;;;;;;;;;;6096938;23;20192;-83
2022/03/15 14:34:28;;;;;;;7.30;5.33;;;;;;;;;;6097867;23;20199;-82
2022/03/15 14:37:08;;;;;;;12.70;6.40;;;;;;;;;;6096606;23;20183;-82
2022/03/15 14:39:37;;;;;;;7.80;6.00;;;;;;;;;;6098908;23;20258;-82
2022/03/15 14:42:07;;;;;;;8.90;6.37;;;;;;;;;;6098815;23;20184;-82
2022/03/15 14:44:38;;;;;;;7.07;5.73;;;;;;;;;;6125265;23;20175;-83
2022/03/15 14:47:09;;;;;;;6.17;4.83;;;;;;;;;;6098647;23;20194;-81
2022/03/15 14:49:37;;;;;;;8.67;6.57;;;;;;;;;;6098931;23;20211;-81
2022/03/15 14:52:07;;;;;;;9.77;5.20;;;;;;;;;;6098623;23;20211;-81
2022/03/15 14:54:36;;;;;;;12.77;5.37;;;;;;;;;;6098925;23;20234;-79
2022/03/15 14:57:06;;;;;;;7.23;4.30;;;;;;;;;;6098676;23;20194;-80
2022/03/15 14:59:35;;;;;;;7.33;4.53;;;;;;;;;;6123969;23;20197;-81